PWSweather.com
Personal Weather Stations
Station Observations
WISCHPK61
Green Bay Schmitt Park, Green Bay, WI 54311

Green Bay Schmitt ParkGreen Bay, WI 54311

Lat: 44.514277, Lon: -87.935067

Elevation: 735

Station Type: Acu Rite Pro Weather Center model 02032C

http://greenbayweathercam.com

High Low Average
Temperature 43.7°F6.5°C 38.5°F3.6°C 41.1°F5.1°C
Dew Point 43.4°F6.3°C 34.5°F1.4°C 40.2°F4.6°C
Winds Calm Calm Calm Calm Calm WSWCalm WSW
Wind Gusts 1.2 mph1.9 kmh -- --
Humidity 99% 78% 97%
Pressure 29.12 in986.1 mb 28.75 in973.6 mb -
Precipitation 0.01 in0.3 mm - -
Hour Temp Dew Point Humidity Winds Wind Gusts Pressure Precip Precip Rate Daily Precip Total
12:00 AM 41.9°F5.5°C 41.1°F5.1°C 97% Calm Calm -- 28.77 in974.3 mb - 0.00 in0.0 mm 0.00 in0.0 mm
01:00 AM 40.9°F4.9°C 40.7°F4.8°C 99% Calm Calm -- 28.75 in973.6 mb - 0.00 in0.0 mm 0.00 in0.0 mm
02:00 AM 39.6°F4.2°C 39.3°F4.1°C 99% Calm Calm -- 28.78 in974.6 mb - 0.00 in0.0 mm 0.00 in0.0 mm
03:00 AM 41.0°F5.0°C 40.2°F4.6°C 97% Calm Calm -- 28.78 in974.6 mb - 0.00 in0.0 mm 0.00 in0.0 mm
04:00 AM 41.5°F5.3°C 41.2°F5.1°C 99% Calm Calm -- 28.79 in974.9 mb - 0.00 in0.0 mm 0.00 in0.0 mm
05:00 AM 41.9°F5.5°C 41.6°F5.3°C 99% Calm Calm -- 28.82 in976.0 mb - 0.00 in0.0 mm 0.00 in0.0 mm
06:00 AM 41.0°F5.0°C 40.5°F4.7°C 98% Calm Calm -- 28.81 in975.6 mb - 0.01 in0.3 mm 0.01 in0.3 mm
07:00 AM 40.3°F4.6°C 40.0°F4.4°C 99% Calm Calm -- 28.85 in977.0 mb - 0.00 in0.0 mm 0.01 in0.3 mm
08:00 AM 39.9°F4.4°C 39.6°F4.2°C 99% Calm Calm 1.2 mph1.9 kmh 28.88 in978.0 mb - 0.00 in0.0 mm 0.01 in0.3 mm
09:00 AM 38.8°F3.8°C 38.5°F3.6°C 99% Calm Calm -- 28.87 in977.7 mb - 0.00 in0.0 mm 0.01 in0.3 mm
10:00 AM 38.5°F3.6°C 38.2°F3.4°C 99% Calm Calm -- 28.88 in978.0 mb - 0.00 in0.0 mm 0.01 in0.3 mm
11:00 AM 39.2°F4.0°C 38.9°F3.8°C 99% Calm Calm -- 28.92 in979.3 mb - 0.00 in0.0 mm 0.01 in0.3 mm
12:00 PM 40.3°F4.6°C 40.0°F4.4°C 99% Calm Calm -- 28.93 in979.7 mb - 0.00 in0.0 mm 0.01 in0.3 mm
01:00 PM 41.5°F5.3°C 41.2°F5.1°C 99% Calm Calm -- 28.92 in979.3 mb - 0.00 in0.0 mm 0.01 in0.3 mm
02:00 PM 42.8°F6.0°C 42.5°F5.8°C 99% Calm Calm -- 28.91 in979.0 mb - 0.00 in0.0 mm 0.01 in0.3 mm
03:00 PM 43.7°F6.5°C 43.4°F6.3°C 99% Calm Calm -- 28.95 in980.4 mb - 0.00 in0.0 mm 0.01 in0.3 mm
04:00 PM 43.5°F6.4°C 39.6°F4.2°C 86% Calm Calm -- 28.98 in981.4 mb - 0.00 in0.0 mm 0.01 in0.3 mm
05:00 PM 43.2°F6.2°C 42.9°F6.1°C 99% Calm Calm -- 29.00 in982.1 mb - 0.00 in0.0 mm 0.01 in0.3 mm
06:00 PM 42.3°F5.7°C 42.0°F5.6°C 99% Calm Calm -- 29.04 in983.4 mb - 0.00 in0.0 mm 0.01 in0.3 mm
07:00 PM 41.5°F5.3°C 41.2°F5.1°C 99% Calm Calm -- 29.08 in984.8 mb - 0.00 in0.0 mm 0.01 in0.3 mm
08:00 PM 40.8°F4.9°C 34.5°F1.4°C 78% Calm Calm -- 29.09 in985.1 mb - 0.00 in0.0 mm 0.01 in0.3 mm
09:00 PM 41.0°F5.0°C 40.7°F4.8°C 99% Calm Calm -- 29.12 in986.1 mb - 0.00 in0.0 mm 0.01 in0.3 mm
10:00 PM 41.2°F5.1°C 37.0°F2.8°C 85% Calm Calm -- 29.12 in986.1 mb - 0.00 in0.0 mm 0.01 in0.3 mm
11:00 PM 41.0°F5.0°C 40.7°F4.8°C 99% Calm Calm -- 29.12 in986.1 mb - 0.00 in0.0 mm 0.01 in0.3 mm